Wetterdaten: Woche 03.01.11 - 09.01.11 (KW1)
Datum Zeit Temp. A. Feuchte A. Luftdruck Regen Wind Richtung Taupunkt Windchill Windben
03.01.2011 00:00 0,2 C 76 % 1020,5 hPa 0,0 l/m 2,7 km/h SW -3,5 C 0,2 C 10,5 km/h
03.01.2011 01:00 0,2 C 76 % 1020,6 hPa 0,0 l/m 4,0 km/h W-SW -3,5 C 0,2 C 16,5 km/h
03.01.2011 02:00 0,3 C 75 % 1020,9 hPa 0,0 l/m 5,4 km/h W-NW -3,6 C 0,3 C 16,1 km/h
03.01.2011 03:00 0,2 C 74 % 1021,0 hPa 0,0 l/m 4,4 km/h W-NW -3,9 C 0,2 C 14,1 km/h
03.01.2011 04:00 -0,3 C 76 % 1021,1 hPa 0,0 l/m 3,5 km/h W-NW -4,0 C -0,3 C 10,1 km/h
03.01.2011 05:00 -0,4 C 78 % 1021,5 hPa 0,0 l/m 3,7 km/h NW -3,8 C -0,4 C 9,7 km/h
03.01.2011 06:00 -0,3 C 79 % 1021,8 hPa 0,0 l/m 3,4 km/h W -3,4 C -0,3 C 12,5 km/h
03.01.2011 07:00 -0,3 C 77 % 1022,1 hPa 0,0 l/m 4,0 km/h W-NW -3,8 C -0,3 C 11,7 km/h
03.01.2011 08:00 -0,3 C 76 % 1022,3 hPa 0,0 l/m 3,9 km/h NW -4,1 C -0,3 C 11,7 km/h
03.01.2011 09:00 -0,1 C 75 % 1022,5 hPa 0,0 l/m 4,1 km/h NW -4,0 C -0,1 C 15,0 km/h
03.01.2011 10:00 0,3 C 73 % 1022,8 hPa 0,0 l/m 5,6 km/h W-SW -4,0 C 0,3 C 19,3 km/h
03.01.2011 11:00 0,9 C 70 % 1022,9 hPa 0,0 l/m 6,4 km/h W -4,0 C 0,1 C 20,9 km/h
03.01.2011 12:00 1,3 C 68 % 1022,7 hPa 0,0 l/m 5,6 km/h W -3,9 C 1,3 C 17,7 km/h
03.01.2011 13:00 1,6 C 66 % 1022,5 hPa 0,0 l/m 4,8 km/h W-SW -4,0 C 1,6 C 19,3 km/h
03.01.2011 14:00 1,7 C 64 % 1022,3 hPa 0,0 l/m 5,6 km/h W -4,4 C 1,7 C 20,9 km/h
03.01.2011 15:00 1,4 C 65 % 1022,5 hPa 0,0 l/m 4,8 km/h W-SW -4,4 C 1,4 C 16,9 km/h
03.01.2011 16:00 0,9 C 68 % 1022,8 hPa 0,0 l/m 4,8 km/h W-SW -4,3 C 0,9 C 17,7 km/h
03.01.2011 17:00 -0,2 C 71 % 1023,0 hPa 0,0 l/m 4,8 km/h W -4,9 C -0,2 C 16,9 km/h
03.01.2011 18:00 0,1 C 69 % 1023,3 hPa 0,0 l/m 6,4 km/h W -5,0 C 0,1 C 23,3 km/h
03.01.2011 19:00 -0,1 C 73 % 1023,7 hPa 0,0 l/m 4,0 km/h W-SW -4,3 C -0,1 C 16,9 km/h
03.01.2011 20:00 -0,2 C 75 % 1023,7 hPa 0,0 l/m 4,8 km/h W-SW -4,0 C -0,2 C 17,7 km/h
03.01.2011 21:00 -0,4 C 78 % 1023,8 hPa 0,0 l/m 3,2 km/h W-SW -3,8 C -0,4 C 13,7 km/h
03.01.2011 22:00 -0,9 C 78 % 1023,8 hPa 0,0 l/m 1,6 km/h W-SW -4,2 C -0,9 C 8,1 km/h
03.01.2011 23:00 -1,5 C 78 % 1024,0 hPa 0,0 l/m 1,6 km/h W-SW -4,9 C -1,5 C 8,9 km/h
04.01.2011 00:00 -2,3 C 76 % 1023,8 hPa 0,0 l/m 0,8 km/h SW -5,9 C -2,3 C 4,8 km/h
04.01.2011 01:00 -2,8 C 79 % 1023,5 hPa 0,0 l/m 0,0 km/h N -6,0 C -2,8 C 4,8 km/h
04.01.2011 02:00 -2,8 C 80 % 1023,5 hPa 0,0 l/m 0,8 km/h SW -5,7 C -2,8 C 5,6 km/h
04.01.2011 03:00 -3,3 C 80 % 1023,3 hPa 0,0 l/m 0,8 km/h SW -6,3 C -3,3 C 6,4 km/h
04.01.2011 04:00 -3,9 C 81 % 1023,3 hPa 0,0 l/m 0,8 km/h N -6,7 C -3,9 C 5,6 km/h
04.01.2011 05:00 -5,3 C 81 % 1023,2 hPa 0,0 l/m 0,0 km/h N -8,1 C -5,3 C 1,6 km/h
04.01.2011 06:00 -6,3 C 82 % 1023,2 hPa 0,0 l/m 0,0 km/h N -8,9 C -6,3 C 2,4 km/h
04.01.2011 07:00 -6,9 C 83 % 1023,3 hPa 0,0 l/m 0,0 km/h N -9,2 C -6,9 C 4,0 km/h
04.01.2011 08:00 -7,3 C 84 % 1023,6 hPa 0,0 l/m 0,0 km/h N -9,7 C -7,3 C 3,2 km/h
04.01.2011 09:00 -6,6 C 85 % 1023,5 hPa 0,0 l/m 0,0 km/h N -8,7 C -6,6 C 2,4 km/h
04.01.2011 10:00 -6,1 C 85 % 1023,6 hPa 0,0 l/m 0,0 km/h N -8,2 C -6,1 C 1,6 km/h
04.01.2011 11:00 -4,3 C 85 % 1023,1 hPa 0,0 l/m 0,8 km/h O-NO -6,5 C -4,3 C 3,2 km/h
04.01.2011 12:00 -4,0 C 84 % 1022,7 hPa 0,0 l/m 3,2 km/h O -6,3 C -4,0 C 8,9 km/h
04.01.2011 13:00 -4,7 C 86 % 1022,5 hPa 0,0 l/m 2,4 km/h O -6,7 C -4,7 C 7,3 km/h
04.01.2011 14:00 -4,0 C 85 % 1022,4 hPa 0,0 l/m 2,0 km/h NO -6,1 C -4,0 C 5,3 km/h
04.01.2011 15:00 -3,8 C 85 % 1022,3 hPa 0,0 l/m 0,8 km/h O-NO -5,9 C -3,8 C 3,6 km/h
04.01.2011 16:00 -4,0 C 85 % 1022,1 hPa 0,0 l/m 0,1 km/h N -6,1 C -4,0 C 2,4 km/h
04.01.2011 17:00 -4,6 C 85 % 1022,2 hPa 0,0 l/m 0,2 km/h N -6,7 C -4,6 C 3,6 km/h
04.01.2011 18:00 -5,6 C 85 % 1022,3 hPa 0,0 l/m 0,0 km/h N -7,7 C -5,6 C 0,4 km/h
04.01.2011 19:00 -6,7 C 85 % 1022,4 hPa 0,0 l/m 0,0 km/h N -8,8 C -6,7 C 0,4 km/h
04.01.2011 20:00 -7,4 C 85 % 1022,3 hPa 0,0 l/m 0,0 km/h N -9,5 C -7,4 C 0,0 km/h
04.01.2011 21:00 -6,8 C 86 % 1022,1 hPa 0,0 l/m 0,0 km/h N -8,8 C -6,8 C 0,8 km/h
04.01.2011 22:00 -6,0 C 86 % 1022,0 hPa 0,0 l/m 1,0 km/h S-SO -7,9 C -6,0 C 7,3 km/h
04.01.2011 23:00 -5,4 C 86 % 1021,9 hPa 0,0 l/m 1,2 km/h S -7,4 C -5,4 C 7,2 km/h
05.01.2011 00:00 -5,4 C 85 % 1021,8 hPa 0,0 l/m 0,5 km/h N -7,6 C -5,4 C 4,4 km/h
05.01.2011 01:00 -5,6 C 84 % 1021,4 hPa 0,0 l/m 0,3 km/h S -7,9 C -5,6 C 4,0 km/h
05.01.2011 02:00 -4,9 C 83 % 1021,3 hPa 0,0 l/m 1,5 km/h SO -7,3 C -4,9 C 7,6 km/h
05.01.2011 03:00 -4,6 C 82 % 1021,0 hPa 0,0 l/m 1,6 km/h S-SO -7,3 C -4,6 C 8,0 km/h
05.01.2011 04:00 -4,8 C 81 % 1020,9 hPa 0,0 l/m 0,6 km/h N -7,5 C -4,8 C 4,0 km/h
05.01.2011 05:00 -5,0 C 82 % 1020,5 hPa 0,0 l/m 0,3 km/h N -7,5 C -5,0 C 4,4 km/h
05.01.2011 06:00 -5,2 C 83 % 1020,8 hPa 0,0 l/m 0,3 km/h N -7,6 C -5,2 C 4,0 km/h
05.01.2011 07:00 -5,3 C 83 % 1021,2 hPa 0,0 l/m 0,2 km/h N -7,7 C -5,3 C 4,0 km/h
05.01.2011 08:00 -5,4 C 83 % 1021,6 hPa 0,0 l/m 0,2 km/h N -7,7 C -5,4 C 2,4 km/h
05.01.2011 09:00 -4,6 C 83 % 1021,8 hPa 0,0 l/m 1,0 km/h S-SO -7,1 C -4,6 C 4,8 km/h
05.01.2011 10:00 -3,7 C 80 % 1021,8 hPa 0,0 l/m 2,1 km/h S-SO -6,7 C -3,7 C 7,6 km/h
05.01.2011 11:00 -3,3 C 77 % 1021,6 hPa 0,0 l/m 3,1 km/h S-SO -6,7 C -3,3 C 11,7 km/h
05.01.2011 12:00 -3,3 C 76 % 1021,3 hPa 0,0 l/m 3,2 km/h O-SO -7,0 C -3,3 C 14,5 km/h
05.01.2011 13:00 -3,1 C 73 % 1020,9 hPa 0,0 l/m 3,2 km/h O-SO -7,3 C -3,1 C 11,3 km/h
05.01.2011 14:00 -3,3 C 72 % 1021,0 hPa 0,0 l/m 2,4 km/h O-SO -7,6 C -3,3 C 12,1 km/h
05.01.2011 15:00 -3,3 C 72 % 1021,0 hPa 0,0 l/m 2,4 km/h O-SO -7,7 C -3,3 C 10,5 km/h
05.01.2011 16:00 -3,5 C 73 % 1021,0 hPa 0,0 l/m 1,6 km/h S-SO -7,7 C -3,5 C 8,9 km/h
05.01.2011 17:00 -3,8 C 74 % 1021,2 hPa 0,0 l/m 1,6 km/h S-SO -7,8 C -3,8 C 11,3 km/h
05.01.2011 18:00 -4,1 C 76 % 1021,2 hPa 0,0 l/m 1,6 km/h S -7,8 C -4,1 C 12,1 km/h
05.01.2011 19:00 -4,3 C 76 % 1021,2 hPa 0,0 l/m 1,6 km/h S -7,9 C -4,3 C 10,4 km/h
05.01.2011 20:00 -4,9 C 78 % 1020,8 hPa 0,0 l/m 1,6 km/h S -8,2 C -4,9 C 9,7 km/h
05.01.2011 21:00 -5,2 C 79 % 1020,6 hPa 0,0 l/m 1,6 km/h S-SO -8,3 C -5,2 C 6,4 km/h
05.01.2011 22:00 -5,4 C 80 % 1020,3 hPa 0,0 l/m 0,0 km/h N -8,4 C -5,4 C 4,8 km/h
05.01.2011 23:00 -5,3 C 82 % 1020,0 hPa 0,0 l/m 0,0 km/h N -8,0 C -5,3 C 3,2 km/h
06.01.2011 00:00 -5,9 C 82 % 1019,8 hPa 0,0 l/m 0,0 km/h N -8,5 C -5,9 C 0,8 km/h
06.01.2011 01:00 -7,4 C 81 % 1019,5 hPa 0,0 l/m 0,0 km/h N -10,1 C -7,4 C 0,0 km/h
06.01.2011 02:00 -8,6 C 82 % 1019,3 hPa 0,0 l/m 0,0 km/h N -11,2 C -8,6 C 0,0 km/h
06.01.2011 03:00 -9,1 C 83 % 1018,9 hPa 0,0 l/m 0,0 km/h N -11,4 C -9,1 C 0,0 km/h
06.01.2011 04:00 -8,1 C 85 % 1018,3 hPa 0,0 l/m 0,0 km/h N -10,2 C -8,1 C 1,6 km/h
06.01.2011 05:00 -6,2 C 86 % 1017,7 hPa 0,0 l/m 0,0 km/h N -8,2 C -6,2 C 4,0 km/h
06.01.2011 06:00 -5,6 C 85 % 1017,2 hPa 0,0 l/m 0,0 km/h N -7,8 C -5,6 C 4,0 km/h
06.01.2011 07:00 -5,6 C 85 % 1016,8 hPa 0,0 l/m 0,0 km/h N -7,7 C -5,6 C 7,2 km/h
06.01.2011 08:00 -5,3 C 84 % 1016,5 hPa 0,0 l/m 0,0 km/h N -7,5 C -5,3 C 5,6 km/h
06.01.2011 09:00 -4,4 C 85 % 1015,8 hPa 0,0 l/m 0,8 km/h O-SO -6,7 C -4,4 C 6,4 km/h
06.01.2011 10:00 -3,8 C 85 % 1015,8 hPa 0,0 l/m 2,4 km/h O -5,9 C -3,8 C 12,1 km/h
06.01.2011 11:00 -3,0 C 85 % 1015,2 hPa 0,0 l/m 3,2 km/h O -5,3 C -3,0 C 13,7 km/h
06.01.2011 12:00 -2,0 C 82 % 1014,8 hPa 0,0 l/m 3,2 km/h O -4,6 C -2,0 C 15,3 km/h
06.01.2011 13:00 -0,9 C 79 % 1014,8 hPa 0,0 l/m 1,6 km/h O -4,0 C -0,9 C 8,9 km/h
06.01.2011 14:00 -0,1 C 76 % 1014,9 hPa 0,0 l/m 1,6 km/h O -3,8 C -0,1 C 5,6 km/h
06.01.2011 15:00 0,1 C 76 % 1015,2 hPa 0,0 l/m 0,0 km/h N -3,7 C 0,1 C 4,0 km/h
06.01.2011 16:00 -0,1 C 76 % 1015,2 hPa 0,0 l/m 0,0 km/h N -3,8 C -0,1 C 0,0 km/h
06.01.2011 17:00 -0,8 C 77 % 1015,0 hPa 0,0 l/m 0,0 km/h N -4,3 C -0,8 C 0,8 km/h
06.01.2011 18:00 -1,4 C 81 % 1014,8 hPa 0,0 l/m 0,0 km/h N -4,3 C -1,4 C 0,8 km/h
06.01.2011 19:00 -1,3 C 81 % 1014,8 hPa 0,0 l/m 0,0 km/h N -4,1 C -1,3 C 2,4 km/h
06.01.2011 20:00 -0,6 C 82 % 1014,4 hPa 0,0 l/m 0,0 km/h N -3,4 C -0,6 C 3,2 km/h
06.01.2011 21:00 -0,6 C 82 % 1014,3 hPa 0,0 l/m 0,0 km/h N -3,3 C -0,6 C 3,2 km/h
06.01.2011 22:00 -1,0 C 85 % 1013,4 hPa 0,0 l/m 0,0 km/h N -3,3 C -1,0 C 3,2 km/h
06.01.2011 23:00 -1,0 C 85 % 1014,1 hPa 0,0 l/m 0,0 km/h N -3,2 C -1,0 C 4,0 km/h
07.01.2011 00:00 -0,8 C 85 % 1014,6 hPa 0,0 l/m 0,0 km/h N -2,9 C -0,8 C 4,0 km/h
07.01.2011 01:00 -0,6 C 85 % 1015,3 hPa 0,0 l/m 0,8 km/h N -2,8 C -0,6 C 4,8 km/h
07.01.2011 02:00 -0,6 C 85 % 1015,8 hPa 0,0 l/m 0,0 km/h N -2,8 C -0,6 C 1,6 km/h
07.01.2011 03:00 -1,0 C 85 % 1016,0 hPa 0,0 l/m 0,0 km/h N -3,2 C -1,0 C 0,0 km/h
07.01.2011 04:00 -1,6 C 85 % 1016,1 hPa 0,0 l/m 0,0 km/h N -3,8 C -1,6 C 1,6 km/h
07.01.2011 05:00 -1,7 C 85 % 1016,3 hPa 0,0 l/m 0,0 km/h N -3,8 C -1,7 C 2,4 km/h
07.01.2011 06:00 -1,5 C 85 % 1016,8 hPa 0,0 l/m 0,0 km/h N -3,7 C -1,5 C 4,8 km/h
07.01.2011 07:00 -1,9 C 85 % 1017,8 hPa 0,0 l/m 0,0 km/h N -4,1 C -1,9 C 1,6 km/h
07.01.2011 08:00 -1,5 C 85 % 1018,4 hPa 0,0 l/m 0,0 km/h N -3,7 C -1,5 C 0,8 km/h
07.01.2011 09:00 -1,0 C 85 % 1018,8 hPa 0,0 l/m 0,0 km/h N -3,1 C -1,0 C 1,6 km/h
07.01.2011 10:00 0,4 C 85 % 1018,8 hPa 0,0 l/m 0,8 km/h S -1,8 C 0,4 C 6,5 km/h
07.01.2011 11:00 1,8 C 85 % 1018,8 hPa 0,0 l/m 0,8 km/h S-SO -0,5 C 1,8 C 9,7 km/h
07.01.2011 12:00 2,4 C 85 % 1018,8 hPa 0,0 l/m 1,6 km/h S 0,1 C 2,4 C 11,3 km/h
07.01.2011 13:00 2,8 C 84 % 1018,3 hPa 0,0 l/m 1,6 km/h S-SO 0,2 C 2,8 C 8,0 km/h
07.01.2011 14:00 3,0 C 82 % 1018,3 hPa 0,0 l/m 0,0 km/h N 0,2 C 3,0 C 5,6 km/h
07.01.2011 15:00 3,0 C 81 % 1018,5 hPa 0,0 l/m 0,0 km/h N 0,1 C 3,0 C 4,0 km/h
07.01.2011 16:00 2,5 C 82 % 1018,6 hPa 0,0 l/m 0,8 km/h O-SO -0,3 C 2,5 C 4,0 km/h
07.01.2011 17:00 1,4 C 85 % 1018,4 hPa 0,0 l/m 0,2 km/h N -0,9 C 1,4 C 4,0 km/h
07.01.2011 18:00 1,1 C 85 % 1018,3 hPa 0,0 l/m 0,2 km/h N -1,1 C 1,1 C 2,4 km/h
07.01.2011 19:00 1,0 C 85 % 1018,2 hPa 0,0 l/m 0,0 km/h N -1,3 C 1,0 C 0,4 km/h
07.01.2011 20:00 0,8 C 85 % 1017,5 hPa 0,0 l/m 0,0 km/h N -1,4 C 0,8 C 0,0 km/h
07.01.2011 21:00 0,9 C 85 % 1017,4 hPa 0,0 l/m 0,1 km/h N -1,3 C 0,9 C 1,2 km/h
07.01.2011 22:00 1,1 C 85 % 1017,2 hPa 0,0 l/m 0,3 km/h N -1,1 C 1,1 C 2,4 km/h
07.01.2011 23:00 1,1 C 85 % 1017,0 hPa 0,0 l/m 0,0 km/h N -1,2 C 1,1 C 0,4 km/h
08.01.2011 00:00 1,0 C 85 % 1017,1 hPa 0,0 l/m 0,0 km/h NW -1,2 C 1,0 C 0,4 km/h
08.01.2011 01:00 1,4 C 85 % 1017,4 hPa 0,0 l/m 0,7 km/h N -0,9 C 1,4 C 4,0 km/h
08.01.2011 02:00 1,6 C 85 % 1017,5 hPa 0,0 l/m 0,0 km/h N -0,6 C 1,6 C 0,4 km/h
08.01.2011 03:00 1,6 C 85 % 1017,5 hPa 0,0 l/m 0,1 km/h N -0,6 C 1,6 C 2,8 km/h
08.01.2011 04:00 1,5 C 85 % 1017,2 hPa 0,0 l/m 0,0 km/h N -0,7 C 1,5 C 0,0 km/h
08.01.2011 05:00 1,5 C 85 % 1016,9 hPa 0,0 l/m 0,0 km/h N -0,8 C 1,5 C 0,4 km/h
08.01.2011 06:00 1,5 C 85 % 1016,9 hPa 0,0 l/m 0,2 km/h N -0,8 C 1,5 C 2,8 km/h
08.01.2011 07:00 1,5 C 85 % 1017,2 hPa 0,0 l/m 0,1 km/h N -0,8 C 1,5 C 0,4 km/h
08.01.2011 08:00 1,6 C 85 % 1017,4 hPa 0,0 l/m 0,0 km/h N -0,7 C 1,6 C 0,8 km/h
08.01.2011 09:00 1,8 C 85 % 1017,4 hPa 0,0 l/m 0,0 km/h N -0,4 C 1,8 C 0,8 km/h
08.01.2011 10:00 2,1 C 85 % 1017,4 hPa 0,0 l/m 0,0 km/h N -0,3 C 2,1 C 1,2 km/h
08.01.2011 11:00 2,3 C 84 % 1017,6 hPa 0,0 l/m 0,0 km/h N -0,1 C 2,3 C 1,2 km/h
08.01.2011 12:00 2,4 C 84 % 1017,3 hPa 0,0 l/m 0,0 km/h N -0,0 C 2,4 C 1,1 km/h
08.01.2011 13:00 2,7 C 84 % 1017,3 hPa 0,0 l/m 0,0 km/h N 0,2 C 2,7 C 4,8 km/h
08.01.2011 14:00 3,0 C 84 % 1017,3 hPa 0,3 l/m 0,0 km/h N 0,6 C 3,0 C 2,4 km/h
08.01.2011 15:00 3,3 C 84 % 1018,0 hPa 0,0 l/m 0,0 km/h N 0,8 C 3,3 C 0,8 km/h
08.01.2011 16:00 3,1 C 84 % 1018,3 hPa 0,8 l/m 0,0 km/h N 0,6 C 3,1 C 0,8 km/h
08.01.2011 17:00 2,3 C 84 % 1018,2 hPa 0,0 l/m 0,0 km/h N -0,1 C 2,3 C 0,8 km/h
08.01.2011 18:00 1,9 C 84 % 1018,4 hPa 0,0 l/m 0,0 km/h N -0,5 C 1,9 C 1,6 km/h
08.01.2011 19:00 1,3 C 85 % 1018,6 hPa 0,0 l/m 0,0 km/h N -1,1 C 1,3 C 0,8 km/h
08.01.2011 20:00 0,2 C 85 % 1018,8 hPa 0,0 l/m 0,0 km/h N -2,0 C 0,2 C 0,0 km/h
08.01.2011 21:00 -0,5 C 85 % 1018,7 hPa 0,0 l/m 0,0 km/h N -2,7 C -0,5 C 0,8 km/h
08.01.2011 22:00 -1,1 C 85 % 1018,4 hPa 0,0 l/m 0,0 km/h N -3,3 C -1,1 C 0,0 km/h
08.01.2011 23:00 -1,6 C 85 % 1018,5 hPa 0,0 l/m 0,0 km/h N -3,8 C -1,6 C 0,0 km/h
09.01.2011 00:00 -2,0 C 85 % 1018,3 hPa 0,0 l/m 0,0 km/h N -4,1 C -2,0 C 0,0 km/h
09.01.2011 01:00 -1,3 C 84 % 1018,0 hPa 0,0 l/m 0,0 km/h N -3,6 C -1,3 C 0,0 km/h
09.01.2011 02:00 -0,6 C 85 % 1018,0 hPa 0,0 l/m 0,0 km/h N -2,8 C -0,6 C 0,8 km/h
09.01.2011 03:00 -0,4 C 85 % 1017,7 hPa 0,0 l/m 0,0 km/h N -2,6 C -0,4 C 3,2 km/h
09.01.2011 04:00 -0,3 C 85 % 1017,5 hPa 0,0 l/m 0,0 km/h N -2,6 C -0,3 C 3,2 km/h
09.01.2011 05:00 -0,3 C 85 % 1017,0 hPa 0,0 l/m 0,0 km/h S -2,5 C -0,3 C 3,2 km/h
09.01.2011 06:00 -0,6 C 85 % 1016,8 hPa 0,0 l/m 1,6 km/h S -2,9 C -0,6 C 8,9 km/h
09.01.2011 07:00 -0,9 C 85 % 1017,1 hPa 0,0 l/m 0,8 km/h S -3,1 C -0,9 C 5,6 km/h
09.01.2011 08:00 -0,9 C 85 % 1017,3 hPa 0,0 l/m 1,6 km/h S -3,1 C -0,9 C 8,0 km/h
09.01.2011 09:00 -0,8 C 84 % 1018,0 hPa 0,0 l/m 0,8 km/h N -3,1 C -0,8 C 6,4 km/h
09.01.2011 10:00 -0,5 C 84 % 1017,8 hPa 0,0 l/m 0,0 km/h N -2,9 C -0,5 C 3,2 km/h
09.01.2011 11:00 -0,4 C 84 % 1017,3 hPa 0,3 l/m 0,0 km/h N -2,8 C -0,4 C 5,6 km/h
09.01.2011 12:00 -0,6 C 85 % 1017,0 hPa 0,0 l/m 0,0 km/h N -2,9 C -0,6 C 4,8 km/h
09.01.2011 13:00 -0,6 C 85 % 1016,8 hPa 0,0 l/m 0,0 km/h N -2,9 C -0,6 C 4,0 km/h
09.01.2011 14:00 -0,3 C 84 % 1016,8 hPa 0,0 l/m 0,8 km/h SW -2,7 C -0,3 C 5,6 km/h
09.01.2011 15:00 0,1 C 84 % 1017,2 hPa 0,0 l/m 0,8 km/h N -2,3 C 0,1 C 4,8 km/h
09.01.2011 16:00 0,5 C 84 % 1017,3 hPa 0,0 l/m 0,0 km/h N -1,9 C 0,5 C 4,0 km/h
09.01.2011 17:00 0,7 C 84 % 1017,4 hPa 0,0 l/m 0,0 km/h N -1,7 C 0,7 C 4,8 km/h
09.01.2011 18:00 0,9 C 84 % 1017,8 hPa 0,0 l/m 0,0 km/h N -1,5 C 0,9 C 3,2 km/h
09.01.2011 19:00 0,9 C 84 % 1017,8 hPa 0,0 l/m 0,0 km/h N -1,5 C 0,9 C 1,6 km/h
09.01.2011 20:00 1,2 C 84 % 1018,0 hPa 0,0 l/m 0,0 km/h N -1,2 C 1,2 C 5,6 km/h
09.01.2011 21:00 1,2 C 84 % 1018,0 hPa 0,0 l/m 0,0 km/h N -1,2 C 1,2 C 1,6 km/h
09.01.2011 22:00 1,2 C 84 % 1018,1 hPa 0,0 l/m 0,0 km/h N -1,2 C 1,2 C 2,4 km/h
09.01.2011 23:00 1,3 C 84 % 1018,7 hPa 0,0 l/m 0,0 km/h N -1,1 C 1,3 C 3,2 km/h
Min-Datum _ 06.01.11 03.01.11 06.01.11 - 04.01.11 - 06.01.11 06.01.11 04.01.11
_ Min-Zeit 03:30 14:00 22:30 - 00:00 - 03:00 03:00 10:30
Minimum _ -9,1 C 64 % 1013,3 hPa - 0,0 km/h - -11,4 C -9,1 C 0,0 km/h
Max-Datum _ 08.01.11 04.01.11 03.01.11 08.01.11 03.01.11 - 08.01.11 08.01.11 03.01.11
_ Max-Zeit 15:00 13:30 23:30 16:00 11:30 - 15:30 15:30 11:30
Maximum _ 3,3 C 86 % 1024,0 hPa 0,8 l/m 8,0 km/h
W
- 0,9 C 3,3 C 24,1 km/h
W
Durchschnitt _ -1,6 C 82 % 1019,3 hPa #1,3 l/m 1,1 km/h S-SO -4,3 C -1,6 C 5,7 km/h